createdAt,value
2022-11-05T00:01:55.060Z,4.53
2022-11-05T00:04:40.602Z,4.48
2022-11-05T00:07:34.227Z,4.47
2022-11-05T00:10:06.856Z,4.46
2022-11-05T00:12:52.551Z,4.48
2022-11-05T00:15:38.218Z,4.48
2022-11-05T00:18:05.113Z,4.49
2022-11-05T00:20:31.733Z,4.53
2022-11-05T00:23:26.422Z,4.57
2022-11-05T00:25:54.910Z,4.61
2022-11-05T00:28:21.771Z,4.65
2022-11-05T00:30:48.490Z,4.69
2022-11-05T00:33:15.345Z,4.72
2022-11-05T00:35:41.946Z,4.75
2022-11-05T00:38:08.710Z,4.80
2022-11-05T00:40:35.562Z,4.84
2022-11-05T00:43:20.888Z,4.90
2022-11-05T00:45:47.591Z,4.96
2022-11-05T00:48:33.259Z,5.02
2022-11-05T00:51:00.103Z,5.07
2022-11-05T00:53:26.718Z,5.12
2022-11-05T00:55:53.478Z,5.16
2022-11-05T00:58:20.746Z,5.19
2022-11-05T01:00:52.678Z,5.22
2022-11-05T01:03:21.172Z,5.25
2022-11-05T01:05:50.038Z,5.28
2022-11-05T01:08:17.605Z,5.30
2022-11-05T01:10:46.479Z,5.32
2022-11-05T01:13:13.650Z,5.32
2022-11-05T01:15:40.494Z,5.33
2022-11-05T01:18:07.211Z,5.34
2022-11-05T01:20:33.958Z,5.36
2022-11-05T01:23:00.680Z,5.33
2022-11-05T01:25:27.503Z,5.30
2022-11-05T01:27:54.201Z,5.26
2022-11-05T01:30:20.947Z,5.23
2022-11-05T01:32:47.806Z,5.23
2022-11-05T01:35:15.338Z,5.24
2022-11-05T01:37:42.234Z,5.24
2022-11-05T01:40:11.931Z,5.26
2022-11-05T01:42:38.684Z,5.27
2022-11-05T01:45:14.961Z,5.27
2022-11-05T01:47:51.154Z,5.27
2022-11-05T01:50:37.357Z,5.27
2022-11-05T01:53:06.297Z,5.27
2022-11-05T01:55:38.668Z,5.27
2022-11-05T01:58:06.374Z,5.28
2022-11-05T02:00:34.222Z,5.28
2022-11-05T02:03:01.060Z,5.28
2022-11-05T02:05:28.100Z,5.28
2022-11-05T02:07:54.833Z,5.28
2022-11-05T02:10:21.565Z,5.30
2022-11-05T02:12:48.597Z,5.33
2022-11-05T02:15:17.767Z,5.33
2022-11-05T02:17:47.683Z,5.40
2022-11-05T02:20:51.822Z,5.45
2022-11-05T02:23:40.368Z,5.49
2022-11-05T02:26:26.070Z,5.52
2022-11-05T02:29:14.149Z,5.55
2022-11-05T02:31:46.896Z,5.58
2022-11-05T02:34:51.385Z,5.60
2022-11-05T02:37:41.540Z,5.63
2022-11-05T02:40:14.170Z,5.64
2022-11-05T02:43:40.943Z,5.59
2022-11-05T02:46:18.308Z,5.59
2022-11-05T02:48:54.120Z,5.55
2022-11-05T02:51:46.847Z,5.51
2022-11-05T02:54:28.539Z,5.47
2022-11-05T02:56:55.339Z,5.43
2022-11-05T02:59:22.056Z,5.43
2022-11-05T03:01:48.876Z,5.42
2022-11-05T03:04:17.080Z,5.42
2022-11-05T03:07:13.088Z,5.41
2022-11-05T03:10:15.882Z,5.38
2022-11-05T03:12:57.011Z,5.34
2022-11-05T03:15:38.435Z,5.36
2022-11-05T03:18:12.364Z,5.34
2022-11-05T03:20:39.020Z,5.34
2022-11-05T03:23:36.479Z,5.33
2022-11-05T03:26:11.373Z,5.29
2022-11-05T03:28:39.919Z,5.34
2022-11-05T03:31:06.671Z,5.34
2022-11-05T03:33:33.838Z,5.33
2022-11-05T03:36:03.394Z,5.34
2022-11-05T03:38:32.980Z,5.36
2022-11-05T03:41:01.473Z,5.37
2022-11-05T03:43:29.942Z,5.38
2022-11-05T03:45:59.121Z,5.38
2022-11-05T03:48:27.249Z,5.39
2022-11-05T03:51:01.257Z,5.35
2022-11-05T03:53:33.467Z,5.38
2022-11-05T03:56:22.038Z,5.37
2022-11-05T03:58:49.300Z,5.36
2022-11-05T04:01:17.529Z,5.35
2022-11-05T04:03:44.376Z,5.34
2022-11-05T04:06:29.629Z,5.32
2022-11-05T04:09:15.082Z,5.30
2022-11-05T04:12:00.475Z,5.29
2022-11-05T04:14:27.389Z,5.28
2022-11-05T04:17:06.317Z,5.27
2022-11-05T04:19:52.802Z,5.23
2022-11-05T04:22:38.301Z,5.20
2022-11-05T04:25:05.221Z,5.17
2022-11-05T04:27:31.882Z,5.15
2022-11-05T04:30:17.349Z,5.13
2022-11-05T04:33:07.149Z,5.10
2022-11-05T04:35:42.108Z,5.06
2022-11-05T04:38:19.041Z,5.05
2022-11-05T04:40:46.389Z,5.00
2022-11-05T04:43:18.557Z,5.02
2022-11-05T04:45:45.728Z,5.02
2022-11-05T04:48:12.549Z,5.03
2022-11-05T04:50:39.463Z,5.02
2022-11-05T04:53:06.110Z,5.00
2022-11-05T04:55:32.813Z,5.01
2022-11-05T04:57:59.611Z,5.00
2022-11-05T05:00:26.259Z,5.00
2022-11-05T05:02:53.036Z,5.00
2022-11-05T05:05:19.781Z,4.98
2022-11-05T05:07:46.480Z,4.99
2022-11-05T05:10:13.210Z,5.01
2022-11-05T05:12:39.938Z,5.02
2022-11-05T05:15:09.383Z,5.03
2022-11-05T05:17:36.554Z,5.04
2022-11-05T05:20:21.996Z,5.06
2022-11-05T05:22:53.227Z,5.09
2022-11-05T05:25:20.174Z,5.10
2022-11-05T05:27:46.899Z,5.12
2022-11-05T05:30:13.748Z,5.13
2022-11-05T05:32:40.411Z,5.14
2022-11-05T05:35:07.447Z,5.15
2022-11-05T05:37:34.169Z,5.14
2022-11-05T05:40:00.880Z,5.13
2022-11-05T05:42:27.604Z,5.12
2022-11-05T05:44:54.306Z,5.09
2022-11-05T05:47:21.164Z,5.12
2022-11-05T05:49:47.791Z,5.13
2022-11-05T05:52:14.527Z,5.13
2022-11-05T05:54:42.885Z,5.12
2022-11-05T05:57:09.973Z,5.13
2022-11-05T05:59:36.652Z,5.14
2022-11-05T06:02:03.511Z,5.17
2022-11-05T06:04:30.308Z,5.21
2022-11-05T06:06:57.030Z,5.24
2022-11-05T06:09:23.788Z,5.27
2022-11-05T06:11:50.495Z,5.28
2022-11-05T06:14:17.259Z,5.37
2022-11-05T06:16:44.307Z,5.40
2022-11-05T06:19:11.022Z,5.43
2022-11-05T06:21:37.864Z,5.45
2022-11-05T06:24:04.709Z,5.48
2022-11-05T06:26:31.449Z,5.50
2022-11-05T06:28:58.228Z,5.50
2022-11-05T06:31:25.037Z,5.49
2022-11-05T06:33:51.873Z,5.46
2022-11-05T06:36:18.949Z,5.44
2022-11-05T06:38:45.813Z,5.41
2022-11-05T06:41:12.488Z,5.41
2022-11-05T06:43:39.310Z,5.40
2022-11-05T06:46:06.089Z,5.39
2022-11-05T06:51:08.088Z,5.41
2022-11-05T06:53:35.498Z,5.39
2022-11-05T06:56:06.195Z,5.40
2022-11-05T06:58:33.202Z,5.39
2022-11-05T07:01:01.650Z,5.38
2022-11-05T07:03:28.658Z,5.40
2022-11-05T07:05:55.371Z,5.43
2022-11-05T07:08:22.035Z,5.47
2022-11-05T07:10:48.749Z,5.51
2022-11-05T07:13:16.244Z,5.55
2022-11-05T07:15:43.355Z,5.57
2022-11-05T07:18:10.066Z,5.63
2022-11-05T07:20:36.797Z,5.66
2022-11-05T07:23:07.672Z,5.68
2022-11-05T07:25:34.554Z,5.71
2022-11-05T07:28:01.251Z,5.70
2022-11-05T07:30:28.208Z,5.67
2022-11-05T07:32:55.237Z,5.62
2022-11-05T07:35:22.021Z,5.60
2022-11-05T07:37:49.343Z,5.60
2022-11-05T07:40:18.299Z,5.60
2022-11-05T07:42:45.955Z,5.59
2022-11-05T07:45:13.026Z,5.57
2022-11-05T07:47:45.079Z,5.57
2022-11-05T07:50:11.803Z,5.58
2022-11-05T07:52:38.532Z,5.57
2022-11-05T07:55:05.847Z,5.57
2022-11-05T07:57:32.549Z,5.57
2022-11-05T08:00:01.357Z,5.59
2022-11-05T08:02:28.285Z,5.63
2022-11-05T08:04:55.255Z,5.67
2022-11-05T08:07:21.999Z,5.70
2022-11-05T08:09:48.716Z,5.71
2022-11-05T08:12:15.327Z,5.71
2022-11-05T08:14:42.152Z,5.72
2022-11-05T08:17:08.862Z,5.73
2022-11-05T08:19:35.507Z,5.74
2022-11-05T08:22:02.241Z,5.72
2022-11-05T08:24:28.995Z,5.71
2022-11-05T08:26:55.718Z,5.70
2022-11-05T08:29:22.498Z,5.68
2022-11-05T08:31:49.137Z,5.65
2022-11-05T08:34:15.867Z,5.59
2022-11-05T08:36:46.472Z,5.54
2022-11-05T08:39:16.960Z,5.50
2022-11-05T08:41:44.641Z,5.49
2022-11-05T08:44:11.525Z,5.49
2022-11-05T08:46:41.600Z,5.49
2022-11-05T08:49:08.615Z,5.48
2022-11-05T08:51:35.359Z,5.48
2022-11-05T08:54:01.946Z,5.46
2022-11-05T08:56:28.762Z,5.47
2022-11-05T08:58:55.457Z,5.46
2022-11-05T09:01:22.617Z,5.48
2022-11-05T09:03:52.782Z,5.49
2022-11-05T09:06:22.387Z,5.51
2022-11-05T09:08:49.136Z,5.52
2022-11-05T09:11:16.564Z,5.55
2022-11-05T09:13:43.348Z,5.56
2022-11-05T09:16:18.206Z,5.59
2022-11-05T09:18:44.936Z,5.63
2022-11-05T09:21:11.672Z,5.66
2022-11-05T09:23:38.609Z,5.71
2022-11-05T09:26:05.627Z,5.75
2022-11-05T09:28:33.197Z,5.77
2022-11-05T09:31:00.640Z,5.79
2022-11-05T09:33:28.081Z,5.81
2022-11-05T09:35:54.883Z,5.83
2022-11-05T09:38:21.523Z,5.83
2022-11-05T09:40:55.904Z,5.83
2022-11-05T09:43:31.214Z,5.84
2022-11-05T09:45:58.986Z,5.82
2022-11-05T09:48:28.314Z,5.87
2022-11-05T09:50:55.186Z,5.87
2022-11-05T09:53:22.420Z,5.86
2022-11-05T09:55:59.415Z,5.87
2022-11-05T09:58:43.711Z,5.88
2022-11-05T10:01:13.292Z,5.90
2022-11-05T10:03:44.772Z,5.91
2022-11-05T10:06:13.660Z,5.93
2022-11-05T10:08:42.720Z,5.93
2022-11-05T10:11:22.168Z,5.92
2022-11-05T10:13:52.064Z,5.91
2022-11-05T10:16:32.136Z,5.92
2022-11-05T10:19:13.663Z,5.92
2022-11-05T10:24:27.318Z,5.88
2022-11-05T10:26:54.045Z,5.88
2022-11-05T10:29:30.737Z,5.89
2022-11-05T10:31:57.987Z,5.89
2022-11-05T10:34:28.015Z,5.89
2022-11-05T10:36:54.737Z,5.89
2022-11-05T10:39:21.639Z,5.86
2022-11-05T10:42:10.344Z,5.83
2022-11-05T10:45:10.003Z,5.80
2022-11-05T10:47:54.997Z,5.80
2022-11-05T10:50:24.630Z,5.82
2022-11-05T10:52:54.363Z,5.83
2022-11-05T10:55:26.195Z,5.85
2022-11-05T10:57:53.017Z,5.86
2022-11-05T11:00:23.250Z,5.87
2022-11-05T11:03:03.905Z,5.87
2022-11-05T11:05:31.975Z,5.87
2022-11-05T11:08:01.817Z,5.88
2022-11-05T11:10:29.025Z,5.88
2022-11-05T11:12:56.250Z,5.88
2022-11-05T11:15:28.330Z,5.86
2022-11-05T11:17:56.280Z,5.84
2022-11-05T11:20:25.797Z,5.82
2022-11-05T11:23:12.077Z,5.82
2022-11-05T11:25:50.007Z,5.83
2022-11-05T11:28:18.856Z,5.86
2022-11-05T11:30:50.156Z,5.88
2022-11-05T11:33:19.875Z,5.89
2022-11-05T11:35:46.607Z,5.89
2022-11-05T11:38:15.115Z,5.87
2022-11-05T11:40:41.833Z,5.90
2022-11-05T11:43:21.704Z,5.90
2022-11-05T11:45:50.009Z,5.90
2022-11-05T11:48:27.604Z,5.90
2022-11-05T11:50:54.841Z,5.93
2022-11-05T11:53:21.586Z,5.97
2022-11-05T11:56:19.908Z,5.97
2022-11-05T11:58:52.767Z,5.96
2022-11-05T12:01:29.947Z,5.97
2022-11-05T12:04:18.448Z,5.97
2022-11-05T12:06:51.703Z,5.94
2022-11-05T12:09:43.904Z,5.94
2022-11-05T12:12:14.679Z,5.94
2022-11-05T12:15:01.757Z,5.94
2022-11-05T12:17:39.648Z,5.95
2022-11-05T12:20:24.750Z,5.96
2022-11-05T12:23:15.808Z,6.00
2022-11-05T12:25:49.120Z,6.04
2022-11-05T12:28:30.619Z,6.06
2022-11-05T12:31:23.477Z,6.07
2022-11-05T12:33:56.373Z,6.07
2022-11-05T12:36:34.803Z,6.09
2022-11-05T12:39:28.768Z,6.10
2022-11-05T12:42:01.547Z,6.10
2022-11-05T12:44:56.222Z,6.12
2022-11-05T12:47:45.094Z,6.11
2022-11-05T12:50:20.655Z,6.09
2022-11-05T12:53:12.671Z,6.05
2022-11-05T12:55:47.096Z,6.04
2022-11-05T12:58:20.616Z,6.05
2022-11-05T13:00:51.316Z,6.05
2022-11-05T13:03:42.440Z,6.06
2022-11-05T13:06:17.222Z,6.06
2022-11-05T13:08:52.470Z,6.06
2022-11-05T13:11:21.795Z,6.05
2022-11-05T13:14:10.334Z,6.04
2022-11-05T13:16:48.130Z,6.03
2022-11-05T13:19:21.701Z,6.01
2022-11-05T13:21:56.387Z,6.00
2022-11-05T13:24:41.251Z,5.99
2022-11-05T13:27:11.228Z,5.99
2022-11-05T13:29:59.985Z,6.02
2022-11-05T13:32:36.669Z,6.05
2022-11-05T13:35:06.317Z,6.06
2022-11-05T13:37:54.397Z,6.05
2022-11-05T13:40:25.577Z,6.04
2022-11-05T13:43:19.640Z,6.03
2022-11-05T13:45:54.513Z,6.04
2022-11-05T13:48:36.713Z,6.05
2022-11-05T13:51:37.650Z,6.03
2022-11-05T13:54:30.650Z,5.99
2022-11-05T13:57:18.606Z,5.95
2022-11-05T13:59:56.150Z,5.92
2022-11-05T14:02:44.959Z,5.89
2022-11-05T14:05:35.424Z,5.87
2022-11-05T14:08:17.675Z,5.86
2022-11-05T14:11:27.313Z,5.80
2022-11-05T14:14:01.646Z,5.81
2022-11-05T14:16:41.983Z,5.81
2022-11-05T14:19:18.093Z,5.80
2022-11-05T14:21:51.460Z,5.80
2022-11-05T14:24:21.965Z,5.79
2022-11-05T14:27:00.924Z,5.79
2022-11-05T14:29:36.583Z,5.76
2022-11-05T14:32:09.567Z,5.74
2022-11-05T14:34:44.977Z,5.72
2022-11-05T14:37:11.870Z,5.69
2022-11-05T14:39:38.988Z,5.69
2022-11-05T14:42:21.294Z,5.69
2022-11-05T14:45:19.125Z,5.69
2022-11-05T14:47:59.773Z,5.66
2022-11-05T14:50:38.613Z,5.64
2022-11-05T14:53:37.308Z,5.60
2022-11-05T14:56:08.036Z,5.53
2022-11-05T14:58:39.921Z,5.48
2022-11-05T15:01:08.795Z,5.42
2022-11-05T15:03:41.066Z,5.38
2022-11-05T15:06:27.665Z,5.34
2022-11-05T15:08:56.306Z,5.31
2022-11-05T15:11:30.994Z,5.29
2022-11-05T15:14:07.774Z,5.27
2022-11-05T15:16:42.836Z,5.27
2022-11-05T15:19:31.345Z,5.28
2022-11-05T15:21:59.665Z,5.28
2022-11-05T15:24:28.560Z,5.27
2022-11-05T15:27:06.476Z,5.28
2022-11-05T15:29:33.526Z,5.28
2022-11-05T15:32:00.391Z,5.27
2022-11-05T15:34:31.657Z,5.26
2022-11-05T15:37:02.340Z,5.21
2022-11-05T15:39:41.248Z,5.22
2022-11-05T15:42:14.061Z,5.19
2022-11-05T15:44:42.644Z,5.16
2022-11-05T15:47:12.440Z,5.14
2022-11-05T15:49:39.297Z,5.13
2022-11-05T15:52:06.138Z,5.13
2022-11-05T15:54:33.209Z,5.10
2022-11-05T15:57:00.441Z,5.07
2022-11-05T15:59:27.575Z,5.04
2022-11-05T16:02:04.813Z,5.02
2022-11-05T16:04:33.069Z,5.01
2022-11-05T16:07:01.686Z,5.00
2022-11-05T16:09:32.937Z,4.97
2022-11-05T16:12:12.940Z,4.95
2022-11-05T16:14:39.954Z,4.92
2022-11-05T16:17:18.162Z,4.88
2022-11-05T16:19:44.944Z,4.91
2022-11-05T16:22:11.582Z,4.91
2022-11-05T16:24:38.397Z,4.90
2022-11-05T16:27:05.222Z,4.88
2022-11-05T16:29:39.640Z,4.84
2022-11-05T16:32:32.894Z,4.79
2022-11-05T16:35:01.011Z,4.74
2022-11-05T16:37:36.679Z,4.77
2022-11-05T16:40:12.237Z,4.77
2022-11-05T16:42:39.859Z,4.76
2022-11-05T16:45:07.717Z,4.75
2022-11-05T16:47:34.609Z,4.75
2022-11-05T16:50:01.416Z,4.74
2022-11-05T16:52:28.336Z,4.73
2022-11-05T16:54:55.035Z,4.71
2022-11-05T16:57:29.269Z,4.69
2022-11-05T16:59:56.149Z,4.63
2022-11-05T17:02:22.974Z,4.66
2022-11-05T17:04:50.006Z,4.65
2022-11-05T17:07:16.832Z,4.63
2022-11-05T17:09:43.615Z,4.62
2022-11-05T17:12:11.553Z,4.61
2022-11-05T17:14:38.468Z,4.59
2022-11-05T17:17:05.252Z,4.57
2022-11-05T17:19:32.002Z,4.55
2022-11-05T17:21:58.661Z,4.52
2022-11-05T17:24:25.496Z,4.51
2022-11-05T17:26:52.149Z,4.52
2022-11-05T17:29:18.935Z,4.50
2022-11-05T17:31:45.710Z,4.50
2022-11-05T17:34:12.345Z,4.50
2022-11-05T17:36:39.093Z,4.50
2022-11-05T17:39:05.806Z,4.50
2022-11-05T17:41:32.577Z,4.49
2022-11-05T17:44:00.335Z,4.48
2022-11-05T17:46:27.234Z,4.48
2022-11-05T17:48:54.181Z,4.47
2022-11-05T17:51:22.569Z,4.47
2022-11-05T17:53:49.417Z,4.48
2022-11-05T17:56:24.568Z,4.49
2022-11-05T17:58:56.144Z,4.51
2022-11-05T18:01:25.548Z,4.47
2022-11-05T18:03:52.455Z,4.48
2022-11-05T18:06:19.113Z,4.48
2022-11-05T18:08:45.862Z,4.43
2022-11-05T18:11:12.651Z,4.44
2022-11-05T18:13:39.313Z,4.42
2022-11-05T18:16:06.342Z,4.44
2022-11-05T18:18:33.070Z,4.44
2022-11-05T18:21:00.105Z,4.45
2022-11-05T18:23:26.878Z,4.46
2022-11-05T18:25:53.669Z,4.44
2022-11-05T18:28:20.445Z,4.47
2022-11-05T18:30:47.283Z,4.47
2022-11-05T18:33:14.395Z,4.48
2022-11-05T18:35:44.622Z,4.49
2022-11-05T18:38:11.563Z,4.49
2022-11-05T18:40:38.456Z,4.49
2022-11-05T18:43:05.282Z,4.44
2022-11-05T18:45:33.401Z,4.46
2022-11-05T18:48:03.204Z,4.40
2022-11-05T18:50:30.111Z,4.45
2022-11-05T18:52:56.809Z,4.46
2022-11-05T18:55:24.029Z,4.43
2022-11-05T18:57:50.796Z,4.41
2022-11-05T19:00:17.704Z,4.41
2022-11-05T19:02:44.652Z,4.39
2022-11-05T19:08:01.698Z,4.38
2022-11-05T19:10:28.392Z,4.35
2022-11-05T19:12:55.155Z,4.35
2022-11-05T19:15:21.849Z,4.33
2022-11-05T19:17:48.598Z,4.28
2022-11-05T19:20:15.468Z,4.30
2022-11-05T19:22:42.229Z,4.30
2022-11-05T19:25:09.149Z,4.24
2022-11-05T19:27:36.407Z,4.27
2022-11-05T19:30:04.282Z,4.26
2022-11-05T19:32:31.143Z,4.24
2022-11-05T19:34:57.806Z,4.23
2022-11-05T19:37:24.542Z,4.24
2022-11-05T19:39:52.136Z,4.23
2022-11-05T19:42:18.890Z,4.23
2022-11-05T19:44:45.595Z,4.23
2022-11-05T19:47:12.323Z,4.26
2022-11-05T19:49:39.072Z,4.29
2022-11-05T19:52:06.776Z,4.31
2022-11-05T19:54:35.628Z,4.32
2022-11-05T19:57:02.362Z,4.32
2022-11-05T19:59:29.095Z,4.31
2022-11-05T20:01:55.887Z,4.29
2022-11-05T20:04:22.802Z,4.34
2022-11-05T20:06:49.534Z,4.36
2022-11-05T20:09:23.560Z,4.38
2022-11-05T20:11:51.072Z,4.39
2022-11-05T20:14:17.921Z,4.41
2022-11-05T20:16:44.958Z,4.43
2022-11-05T20:19:13.757Z,4.46
2022-11-05T20:21:40.643Z,4.48
2022-11-05T20:24:07.797Z,4.50
2022-11-05T20:26:34.637Z,4.52
2022-11-05T20:29:01.527Z,4.53
2022-11-05T20:31:28.194Z,4.56
2022-11-05T20:33:55.052Z,4.58
2022-11-05T20:36:22.381Z,4.59
2022-11-05T20:38:50.119Z,4.60
2022-11-05T20:41:17.237Z,4.60
2022-11-05T20:43:44.455Z,4.60
2022-11-05T20:46:13.526Z,4.60
2022-11-05T20:48:40.580Z,4.59
2022-11-05T20:51:09.373Z,4.57
2022-11-05T20:53:36.418Z,4.58
2022-11-05T20:56:07.710Z,4.58
2022-11-05T20:58:35.703Z,4.57
2022-11-05T21:01:02.636Z,4.58
2022-11-05T21:03:29.485Z,4.58
2022-11-05T21:06:04.125Z,4.60
2022-11-05T21:08:30.917Z,4.60
2022-11-05T21:10:57.633Z,4.61
2022-11-05T21:13:25.047Z,4.60
2022-11-05T21:15:53.418Z,4.60
2022-11-05T21:18:21.237Z,4.60
2022-11-05T21:20:48.044Z,4.59
2022-11-05T21:23:14.792Z,4.60
2022-11-05T21:25:41.710Z,4.59
2022-11-05T21:28:08.772Z,4.59
2022-11-05T21:30:41.518Z,4.58
2022-11-05T21:33:08.693Z,4.58
2022-11-05T21:35:48.190Z,4.59
2022-11-05T21:38:34.543Z,4.58
2022-11-05T21:41:03.071Z,4.55
2022-11-05T21:43:29.944Z,4.57
2022-11-05T21:45:59.786Z,4.57
2022-11-05T21:48:26.574Z,4.56
2022-11-05T21:51:12.104Z,4.55
2022-11-05T21:53:57.927Z,4.53
2022-11-05T21:56:44.341Z,4.48
2022-11-05T21:59:31.722Z,4.51
2022-11-05T22:02:01.914Z,4.52
2022-11-05T22:04:36.128Z,4.49
2022-11-05T22:07:03.061Z,4.51
2022-11-05T22:09:29.877Z,4.52
2022-11-05T22:11:56.810Z,4.53
2022-11-05T22:14:23.893Z,4.54
2022-11-05T22:16:50.686Z,4.54
2022-11-05T22:19:17.602Z,4.53
2022-11-05T22:21:44.394Z,4.55
2022-11-05T22:24:11.109Z,4.54
2022-11-05T22:26:37.946Z,4.54
2022-11-05T22:29:05.304Z,4.53
2022-11-05T22:31:36.255Z,4.52
2022-11-05T22:34:04.638Z,4.49
2022-11-05T22:36:32.506Z,4.49
2022-11-05T22:38:59.585Z,4.48
2022-11-05T22:41:26.363Z,4.47
2022-11-05T22:43:53.039Z,4.47
2022-11-05T22:46:21.810Z,4.46
2022-11-05T22:48:48.727Z,4.47
2022-11-05T22:51:16.388Z,4.46
2022-11-05T22:53:43.476Z,4.47
2022-11-05T22:56:12.576Z,4.47
2022-11-05T22:58:39.413Z,4.46
2022-11-05T23:01:06.293Z,4.47
2022-11-05T23:03:33.137Z,4.48
2022-11-05T23:06:26.901Z,4.49
2022-11-05T23:09:12.259Z,4.50
2022-11-05T23:11:40.044Z,4.49
2022-11-05T23:14:08.373Z,4.49
2022-11-05T23:16:56.452Z,4.50
2022-11-05T23:19:42.210Z,4.52
2022-11-05T23:22:31.624Z,4.52
2022-11-05T23:24:58.361Z,4.52
2022-11-05T23:27:25.603Z,4.54
2022-11-05T23:29:52.425Z,4.52
2022-11-05T23:32:25.551Z,4.51
2022-11-05T23:34:52.560Z,4.51
2022-11-05T23:37:38.751Z,4.51
2022-11-05T23:40:07.128Z,4.49
2022-11-05T23:42:52.628Z,4.48
2022-11-05T23:45:37.963Z,4.48
2022-11-05T23:48:17.942Z,4.49
2022-11-05T23:51:02.094Z,4.50
2022-11-05T23:53:29.964Z,4.50
2022-11-05T23:56:08.852Z,4.50
2022-11-05T23:58:36.292Z,4.54
